Ottoville, Ohio
Current Conditions -  °F | °C
As of 2:53 PM on Friday 28 Nov 2014 (Local Time) from KAOH Reporting Station
Overcast Overcast  
Wind Chill: 22°   Ceiling: 7500
Heat Index: 31°   Visibility: 10mi
Dew Point: 17°   Wind: 12mph
Humidity: 57%   Direction: 200°SSW
Pressure: 30.2"   Gusts: NA
Location:  40.93°N, 84.34°W
Report Text: KAOH 281953Z AUTO 20010KT 10SM SCT048 BKN075 OVC090 M01/M08 A3020 RMK AO2 SLP237 T10061083
Loading
Personal Weather Stations






























Interactive Weather Map New forecast layout! Learn more

10-Day Weather Forecast

Advertisements
Track Severe Weather on mobile